Terminal Aerodrome Forecast
Issued by NWS

Home | Current Version | Previous Version | Text Only | Print | Product List | Glossary On
Versions: 1 2 3 4 5 6 7 8 9 10 11 12 13
000
FTAK31 PAFA 282333
TAFAUN
TAF
PAUN 282333Z 2900/2924 28005KT P6SM OVC035
     FM290600 36008KT P6SM OVC050
     FM291200 08007KT P6SM BKN100=

USA.gov is the U.S. government's official web portal to all federal, state and local government web resources and services.